Here is the Quick Look data you requested

The Data originates at the National Weather Service, and is made available here by the UAlbany Department of Atmospheric and Environmental Sciences

Surface Observations

KAFN 231752Z AUTO 00000KT 10SM CLR 19/08 A2989 RMK AO2 SLP126 T01890078 10189
 20128 58014=
KASH 231756Z 31006KT 10SM CLR 19/09 A2987 RMK AO2 SLP124 T01940089 10200 20111
 58017=
KBML 231752Z AUTO VRB04KT 10SM CLR 18/06 A2986 RMK AO2 SLP114 T01830061 10189
 20111 58012=
KCON 231751Z AUTO 31008KT 10SM CLR 21/08 A2986 RMK AO2 SLP112 T02110078 10211
 20111 58017=
KCWN 231758Z AUTO 01013G19KT 10SM SCT065 10/M04 A3015 RMK AO2 SLP091 T01021037
 10102 20050 58009 $=
KDAW 231751Z AUTO 34003KT 10SM CLR 21/08 A2984 RMK AO2 SLP102 T02060083 10206
 20100 58017=
KEEN 231756Z AUTO VRB03KT 10SM CLR 19/09 A2988 RMK AO2 SLP137 6//// T01890089
 10194 20106 58017 PNO $=
KHIE 231752Z AUTO 31003KT 10SM FEW042 17/07 A2987 RMK AO2 SLP115 T01720067
 10178 20117 58014=
KLCI 231756Z AUTO VRB03KT 10SM CLR 19/08 A2985 RMK AO2 SLPNO 6//// T01940078
 58016=
KLEB 231753Z 21006KT 10SM CLR 20/08 A2986 RMK AO2 SLP106 T02000078 10206 20100
 58016=
KMHT 231753Z 31007KT 10SM BKN200 OVC250 21/06 A2985 RMK AO2 SLP120 T02060061
 10206 20117 58019=
KMWN 231749Z 32017G32KT 80SM BCFG BKN/// SCT000 SCT002 SCT100 BKN180 BKN200
 06/02 RMK BCFG SCT000 BBLO BKN ALQDS INTMT FG 10055 21009=
KPSM 231758Z 21004KT 10SM FEW040 OVC200 20/09 A2983 RMK AO2A SLP105 T01970094
 10197 20107 57021=